sensor_id;sensor_type;location;lat;lon;timestamp;P1;durP1;ratioP1;P2;durP2;ratioP2
11006;SDS011;8186;57.652;11.968;2023-08-07T00:00:47;2.37;;;1.60;;
11006;SDS011;8186;57.652;11.968;2023-08-07T00:03:14;4.13;;;1.87;;
11006;SDS011;8186;57.652;11.968;2023-08-07T00:05:44;2.43;;;2.00;;
11006;SDS011;8186;57.652;11.968;2023-08-07T00:08:11;2.00;;;1.80;;
11006;SDS011;8186;57.652;11.968;2023-08-07T00:10:38;2.20;;;1.53;;
11006;SDS011;8186;57.652;11.968;2023-08-07T00:13:05;2.27;;;1.60;;
11006;SDS011;8186;57.652;11.968;2023-08-07T00:15:33;1.67;;;1.57;;
11006;SDS011;8186;57.652;11.968;2023-08-07T00:18:00;2.50;;;1.67;;
11006;SDS011;8186;57.652;11.968;2023-08-07T00:20:27;1.60;;;1.50;;
11006;SDS011;8186;57.652;11.968;2023-08-07T00:22:54;2.57;;;1.43;;
11006;SDS011;8186;57.652;11.968;2023-08-07T00:25:21;2.20;;;1.50;;
11006;SDS011;8186;57.652;11.968;2023-08-07T00:27:47;1.70;;;1.60;;
11006;SDS011;8186;57.652;11.968;2023-08-07T00:30:15;2.87;;;1.40;;
11006;SDS011;8186;57.652;11.968;2023-08-07T00:32:43;1.83;;;1.20;;
11006;SDS011;8186;57.652;11.968;2023-08-07T00:35:10;1.97;;;1.40;;
11006;SDS011;8186;57.652;11.968;2023-08-07T00:37:37;1.40;;;1.20;;
11006;SDS011;8186;57.652;11.968;2023-08-07T00:40:04;1.73;;;1.40;;
11006;SDS011;8186;57.652;11.968;2023-08-07T00:42:31;2.17;;;1.40;;
11006;SDS011;8186;57.652;11.968;2023-08-07T00:44:58;2.07;;;1.60;;
11006;SDS011;8186;57.652;11.968;2023-08-07T00:47:26;1.40;;;1.30;;
11006;SDS011;8186;57.652;11.968;2023-08-07T00:49:54;2.50;;;1.20;;
11006;SDS011;8186;57.652;11.968;2023-08-07T00:52:22;1.77;;;1.40;;
11006;SDS011;8186;57.652;11.968;2023-08-07T00:54:49;1.77;;;1.47;;
11006;SDS011;8186;57.652;11.968;2023-08-07T00:57:16;2.10;;;1.10;;
11006;SDS011;8186;57.652;11.968;2023-08-07T00:59:48;1.57;;;1.10;;
11006;SDS011;8186;57.652;11.968;2023-08-07T01:02:15;2.07;;;1.40;;
11006;SDS011;8186;57.652;11.968;2023-08-07T01:04:42;1.20;;;1.10;;
11006;SDS011;8186;57.652;11.968;2023-08-07T01:07:10;2.37;;;1.23;;
11006;SDS011;8186;57.652;11.968;2023-08-07T01:09:37;1.40;;;1.10;;
11006;SDS011;8186;57.652;11.968;2023-08-07T01:12:07;1.30;;;1.20;;
11006;SDS011;8186;57.652;11.968;2023-08-07T01:14:37;1.60;;;1.37;;
11006;SDS011;8186;57.652;11.968;2023-08-07T01:17:09;1.30;;;1.00;;
11006;SDS011;8186;57.652;11.968;2023-08-07T01:19:38;1.63;;;1.10;;
11006;SDS011;8186;57.652;11.968;2023-08-07T01:22:06;1.23;;;1.00;;
11006;SDS011;8186;57.652;11.968;2023-08-07T01:24:34;1.93;;;1.20;;
11006;SDS011;8186;57.652;11.968;2023-08-07T01:27:02;3.07;;;1.40;;
11006;SDS011;8186;57.652;11.968;2023-08-07T01:29:41;1.20;;;1.10;;
11006;SDS011;8186;57.652;11.968;2023-08-07T01:32:11;1.33;;;1.10;;
11006;SDS011;8186;57.652;11.968;2023-08-07T01:34:40;1.40;;;1.30;;
11006;SDS011;8186;57.652;11.968;2023-08-07T01:37:09;1.30;;;1.20;;
11006;SDS011;8186;57.652;11.968;2023-08-07T01:39:36;0.90;;;0.90;;
11006;SDS011;8186;57.652;11.968;2023-08-07T01:42:04;3.43;;;1.10;;
11006;SDS011;8186;57.652;11.968;2023-08-07T01:44:31;1.20;;;1.10;;
11006;SDS011;8186;57.652;11.968;2023-08-07T01:46:58;1.20;;;1.10;;
11006;SDS011;8186;57.652;11.968;2023-08-07T01:49:24;1.53;;;0.80;;
11006;SDS011;8186;57.652;11.968;2023-08-07T01:51:51;1.90;;;1.33;;
11006;SDS011;8186;57.652;11.968;2023-08-07T01:54:19;1.83;;;1.00;;
11006;SDS011;8186;57.652;11.968;2023-08-07T01:56:46;1.67;;;1.10;;
11006;SDS011;8186;57.652;11.968;2023-08-07T01:59:13;1.27;;;0.93;;
11006;SDS011;8186;57.652;11.968;2023-08-07T02:01:40;1.30;;;1.20;;
11006;SDS011;8186;57.652;11.968;2023-08-07T02:04:06;1.23;;;1.13;;
11006;SDS011;8186;57.652;11.968;2023-08-07T02:06:33;1.10;;;1.00;;
11006;SDS011;8186;57.652;11.968;2023-08-07T02:09:00;1.10;;;1.00;;
11006;SDS011;8186;57.652;11.968;2023-08-07T02:11:28;1.73;;;0.90;;
11006;SDS011;8186;57.652;11.968;2023-08-07T02:13:55;1.83;;;1.00;;
11006;SDS011;8186;57.652;11.968;2023-08-07T02:16:22;2.17;;;1.10;;
11006;SDS011;8186;57.652;11.968;2023-08-07T02:18:49;0.73;;;0.73;;
11006;SDS011;8186;57.652;11.968;2023-08-07T02:21:15;0.87;;;0.87;;
11006;SDS011;8186;57.652;11.968;2023-08-07T02:23:42;1.90;;;1.00;;
11006;SDS011;8186;57.652;11.968;2023-08-07T02:26:09;1.43;;;0.90;;
11006;SDS011;8186;57.652;11.968;2023-08-07T02:28:37;1.20;;;1.10;;
11006;SDS011;8186;57.652;11.968;2023-08-07T02:31:04;1.43;;;1.00;;
11006;SDS011;8186;57.652;11.968;2023-08-07T02:33:31;0.90;;;0.90;;
11006;SDS011;8186;57.652;11.968;2023-08-07T02:35:58;2.07;;;1.00;;
11006;SDS011;8186;57.652;11.968;2023-08-07T02:38:25;2.23;;;0.97;;
11006;SDS011;8186;57.652;11.968;2023-08-07T02:40:51;1.80;;;0.83;;
11006;SDS011;8186;57.652;11.968;2023-08-07T02:43:18;0.93;;;0.80;;
11006;SDS011;8186;57.652;11.968;2023-08-07T02:45:46;1.93;;;0.97;;
11006;SDS011;8186;57.652;11.968;2023-08-07T02:48:13;0.80;;;0.80;;
11006;SDS011;8186;57.652;11.968;2023-08-07T02:50:40;1.67;;;0.80;;
11006;SDS011;8186;57.652;11.968;2023-08-07T02:53:07;1.60;;;0.80;;
11006;SDS011;8186;57.652;11.968;2023-08-07T02:55:33;1.20;;;0.90;;
11006;SDS011;8186;57.652;11.968;2023-08-07T02:58:00;0.90;;;0.80;;
11006;SDS011;8186;57.652;11.968;2023-08-07T03:00:27;0.70;;;0.70;;
11006;SDS011;8186;57.652;11.968;2023-08-07T03:02:55;0.77;;;0.77;;
11006;SDS011;8186;57.652;11.968;2023-08-07T03:05:22;1.00;;;0.87;;
11006;SDS011;8186;57.652;11.968;2023-08-07T03:07:49;0.80;;;0.70;;
11006;SDS011;8186;57.652;11.968;2023-08-07T03:10:15;3.07;;;0.80;;
11006;SDS011;8186;57.652;11.968;2023-08-07T03:12:42;1.20;;;0.80;;
11006;SDS011;8186;57.652;11.968;2023-08-07T03:15:09;0.70;;;0.70;;
11006;SDS011;8186;57.652;11.968;2023-08-07T03:17:36;2.10;;;0.63;;
11006;SDS011;8186;57.652;11.968;2023-08-07T03:20:05;0.60;;;0.60;;
11006;SDS011;8186;57.652;11.968;2023-08-07T03:22:32;0.70;;;0.60;;
11006;SDS011;8186;57.652;11.968;2023-08-07T03:24:59;0.97;;;0.50;;
11006;SDS011;8186;57.652;11.968;2023-08-07T03:27:26;0.80;;;0.70;;
11006;SDS011;8186;57.652;11.968;2023-08-07T03:29:53;1.03;;;0.80;;
11006;SDS011;8186;57.652;11.968;2023-08-07T03:32:19;0.40;;;0.40;;
11006;SDS011;8186;57.652;11.968;2023-08-07T03:34:46;0.60;;;0.60;;
11006;SDS011;8186;57.652;11.968;2023-08-07T03:37:15;0.63;;;0.60;;
11006;SDS011;8186;57.652;11.968;2023-08-07T03:39:41;1.90;;;0.70;;
11006;SDS011;8186;57.652;11.968;2023-08-07T03:42:13;1.60;;;0.60;;
11006;SDS011;8186;57.652;11.968;2023-08-07T03:44:40;0.67;;;0.67;;
11006;SDS011;8186;57.652;11.968;2023-08-07T03:47:07;0.50;;;0.50;;
11006;SDS011;8186;57.652;11.968;2023-08-07T03:49:34;1.30;;;0.80;;
11006;SDS011;8186;57.652;11.968;2023-08-07T03:52:01;0.70;;;0.70;;
11006;SDS011;8186;57.652;11.968;2023-08-07T03:54:29;0.77;;;0.60;;
11006;SDS011;8186;57.652;11.968;2023-08-07T03:56:56;1.70;;;0.40;;
11006;SDS011;8186;57.652;11.968;2023-08-07T03:59:23;1.80;;;0.80;;
11006;SDS011;8186;57.652;11.968;2023-08-07T04:01:50;1.30;;;0.60;;
11006;SDS011;8186;57.652;11.968;2023-08-07T04:04:17;1.00;;;0.70;;
11006;SDS011;8186;57.652;11.968;2023-08-07T04:06:43;1.07;;;0.70;;
11006;SDS011;8186;57.652;11.968;2023-08-07T04:09:10;2.50;;;0.70;;
11006;SDS011;8186;57.652;11.968;2023-08-07T04:11:39;2.70;;;1.10;;
11006;SDS011;8186;57.652;11.968;2023-08-07T04:14:06;1.27;;;0.70;;
11006;SDS011;8186;57.652;11.968;2023-08-07T04:16:33;1.60;;;0.93;;
11006;SDS011;8186;57.652;11.968;2023-08-07T04:19:00;0.90;;;0.70;;
11006;SDS011;8186;57.652;11.968;2023-08-07T04:21:27;1.17;;;0.77;;
11006;SDS011;8186;57.652;11.968;2023-08-07T04:23:53;0.60;;;0.60;;
11006;SDS011;8186;57.652;11.968;2023-08-07T04:26:20;0.60;;;0.60;;
11006;SDS011;8186;57.652;11.968;2023-08-07T04:28:48;0.70;;;0.67;;
11006;SDS011;8186;57.652;11.968;2023-08-07T04:31:15;0.60;;;0.60;;
11006;SDS011;8186;57.652;11.968;2023-08-07T04:33:42;0.73;;;0.60;;
11006;SDS011;8186;57.652;11.968;2023-08-07T04:36:09;0.70;;;0.50;;
11006;SDS011;8186;57.652;11.968;2023-08-07T04:38:36;1.33;;;0.60;;
11006;SDS011;8186;57.652;11.968;2023-08-07T04:41:02;0.80;;;0.53;;
11006;SDS011;8186;57.652;11.968;2023-08-07T04:43:29;0.60;;;0.60;;
11006;SDS011;8186;57.652;11.968;2023-08-07T04:45:58;0.60;;;0.60;;
11006;SDS011;8186;57.652;11.968;2023-08-07T04:48:24;0.60;;;0.60;;
11006;SDS011;8186;57.652;11.968;2023-08-07T04:50:51;1.00;;;0.60;;
11006;SDS011;8186;57.652;11.968;2023-08-07T04:53:18;0.73;;;0.60;;
11006;SDS011;8186;57.652;11.968;2023-08-07T04:55:45;1.43;;;0.57;;
11006;SDS011;8186;57.652;11.968;2023-08-07T04:58:12;0.63;;;0.50;;
11006;SDS011;8186;57.652;11.968;2023-08-07T05:00:39;0.67;;;0.60;;
11006;SDS011;8186;57.652;11.968;2023-08-07T05:03:07;1.13;;;0.53;;
11006;SDS011;8186;57.652;11.968;2023-08-07T05:05:34;0.87;;;0.50;;
11006;SDS011;8186;57.652;11.968;2023-08-07T05:08:01;0.50;;;0.50;;
11006;SDS011;8186;57.652;11.968;2023-08-07T05:10:27;1.17;;;0.60;;
11006;SDS011;8186;57.652;11.968;2023-08-07T05:12:54;0.40;;;0.40;;
11006;SDS011;8186;57.652;11.968;2023-08-07T05:15:21;1.30;;;0.43;;
11006;SDS011;8186;57.652;11.968;2023-08-07T05:17:49;0.40;;;0.40;;
11006;SDS011;8186;57.652;11.968;2023-08-07T05:20:17;0.80;;;0.60;;
11006;SDS011;8186;57.652;11.968;2023-08-07T05:22:44;0.47;;;0.43;;
11006;SDS011;8186;57.652;11.968;2023-08-07T05:25:11;0.50;;;0.43;;
11006;SDS011;8186;57.652;11.968;2023-08-07T05:27:41;0.70;;;0.60;;
11006;SDS011;8186;57.652;11.968;2023-08-07T05:30:08;0.50;;;0.50;;
11006;SDS011;8186;57.652;11.968;2023-08-07T05:32:36;0.50;;;0.50;;
11006;SDS011;8186;57.652;11.968;2023-08-07T05:35:04;0.53;;;0.50;;
11006;SDS011;8186;57.652;11.968;2023-08-07T05:37:32;0.87;;;0.50;;
11006;SDS011;8186;57.652;11.968;2023-08-07T05:39:59;0.60;;;0.43;;
11006;SDS011;8186;57.652;11.968;2023-08-07T05:42:26;0.50;;;0.50;;
11006;SDS011;8186;57.652;11.968;2023-08-07T05:44:53;1.53;;;0.50;;
11006;SDS011;8186;57.652;11.968;2023-08-07T05:47:20;0.40;;;0.40;;
11006;SDS011;8186;57.652;11.968;2023-08-07T05:49:49;0.40;;;0.40;;
11006;SDS011;8186;57.652;11.968;2023-08-07T05:52:17;0.60;;;0.40;;
11006;SDS011;8186;57.652;11.968;2023-08-07T05:54:45;0.40;;;0.40;;
11006;SDS011;8186;57.652;11.968;2023-08-07T05:57:13;1.33;;;0.50;;
11006;SDS011;8186;57.652;11.968;2023-08-07T05:59:39;1.30;;;0.50;;
11006;SDS011;8186;57.652;11.968;2023-08-07T06:02:06;0.73;;;0.40;;
11006;SDS011;8186;57.652;11.968;2023-08-07T06:04:36;0.63;;;0.40;;
11006;SDS011;8186;57.652;11.968;2023-08-07T06:07:03;0.30;;;0.30;;
11006;SDS011;8186;57.652;11.968;2023-08-07T06:09:30;0.70;;;0.57;;
11006;SDS011;8186;57.652;11.968;2023-08-07T06:11:58;1.37;;;0.47;;
11006;SDS011;8186;57.652;11.968;2023-08-07T06:14:25;1.60;;;0.50;;
11006;SDS011;8186;57.652;11.968;2023-08-07T06:16:52;0.80;;;0.50;;
11006;SDS011;8186;57.652;11.968;2023-08-07T06:19:19;0.70;;;0.43;;
11006;SDS011;8186;57.652;11.968;2023-08-07T06:21:47;0.67;;;0.60;;
11006;SDS011;8186;57.652;11.968;2023-08-07T06:24:14;0.47;;;0.40;;
11006;SDS011;8186;57.652;11.968;2023-08-07T06:26:41;0.50;;;0.50;;
11006;SDS011;8186;57.652;11.968;2023-08-07T06:29:10;0.87;;;0.50;;
11006;SDS011;8186;57.652;11.968;2023-08-07T06:31:37;0.47;;;0.47;;
11006;SDS011;8186;57.652;11.968;2023-08-07T06:34:03;0.60;;;0.50;;
11006;SDS011;8186;57.652;11.968;2023-08-07T06:36:30;0.50;;;0.50;;
11006;SDS011;8186;57.652;11.968;2023-08-07T06:38:57;0.47;;;0.40;;
11006;SDS011;8186;57.652;11.968;2023-08-07T06:41:24;0.40;;;0.30;;
11006;SDS011;8186;57.652;11.968;2023-08-07T06:43:51;0.40;;;0.40;;
11006;SDS011;8186;57.652;11.968;2023-08-07T06:46:19;0.50;;;0.50;;
11006;SDS011;8186;57.652;11.968;2023-08-07T06:48:49;1.07;;;0.40;;
11006;SDS011;8186;57.652;11.968;2023-08-07T06:51:16;1.53;;;0.50;;
11006;SDS011;8186;57.652;11.968;2023-08-07T06:53:43;1.67;;;0.60;;
11006;SDS011;8186;57.652;11.968;2023-08-07T06:56:10;0.40;;;0.40;;
11006;SDS011;8186;57.652;11.968;2023-08-07T06:58:36;0.83;;;0.43;;
11006;SDS011;8186;57.652;11.968;2023-08-07T07:01:03;0.90;;;0.50;;
11006;SDS011;8186;57.652;11.968;2023-08-07T07:03:32;0.40;;;0.40;;
11006;SDS011;8186;57.652;11.968;2023-08-07T07:05:59;0.40;;;0.40;;
11006;SDS011;8186;57.652;11.968;2023-08-07T07:08:26;0.40;;;0.40;;
11006;SDS011;8186;57.652;11.968;2023-08-07T07:10:53;0.47;;;0.40;;
11006;SDS011;8186;57.652;11.968;2023-08-07T07:13:20;0.40;;;0.40;;
11006;SDS011;8186;57.652;11.968;2023-08-07T07:15:46;0.73;;;0.47;;
11006;SDS011;8186;57.652;11.968;2023-08-07T07:18:19;0.40;;;0.40;;
11006;SDS011;8186;57.652;11.968;2023-08-07T07:20:47;1.20;;;0.60;;
11006;SDS011;8186;57.652;11.968;2023-08-07T07:23:14;1.50;;;0.50;;
11006;SDS011;8186;57.652;11.968;2023-08-07T07:25:41;1.33;;;0.50;;
11006;SDS011;8186;57.652;11.968;2023-08-07T07:28:08;0.80;;;0.40;;
11006;SDS011;8186;57.652;11.968;2023-08-07T07:30:34;0.50;;;0.50;;
11006;SDS011;8186;57.652;11.968;2023-08-07T07:33:01;0.50;;;0.50;;
11006;SDS011;8186;57.652;11.968;2023-08-07T07:35:28;1.23;;;0.40;;
11006;SDS011;8186;57.652;11.968;2023-08-07T07:37:56;0.60;;;0.50;;
11006;SDS011;8186;57.652;11.968;2023-08-07T07:40:23;0.40;;;0.40;;
11006;SDS011;8186;57.652;11.968;2023-08-07T07:42:50;0.57;;;0.50;;
11006;SDS011;8186;57.652;11.968;2023-08-07T07:45:17;0.50;;;0.50;;
11006;SDS011;8186;57.652;11.968;2023-08-07T07:47:43;1.30;;;0.60;;
11006;SDS011;8186;57.652;11.968;2023-08-07T07:50:11;2.93;;;0.50;;
11006;SDS011;8186;57.652;11.968;2023-08-07T07:52:39;0.40;;;0.40;;
11006;SDS011;8186;57.652;11.968;2023-08-07T07:55:07;1.03;;;0.43;;
11006;SDS011;8186;57.652;11.968;2023-08-07T07:57:35;0.43;;;0.43;;
11006;SDS011;8186;57.652;11.968;2023-08-07T08:00:02;2.63;;;0.50;;
11006;SDS011;8186;57.652;11.968;2023-08-07T08:02:35;0.93;;;0.40;;
11006;SDS011;8186;57.652;11.968;2023-08-07T08:05:02;0.40;;;0.40;;
11006;SDS011;8186;57.652;11.968;2023-08-07T08:07:29;0.50;;;0.50;;
11006;SDS011;8186;57.652;11.968;2023-08-07T08:09:57;0.60;;;0.50;;
11006;SDS011;8186;57.652;11.968;2023-08-07T08:12:25;2.40;;;0.70;;
11006;SDS011;8186;57.652;11.968;2023-08-07T08:14:52;0.47;;;0.47;;
11006;SDS011;8186;57.652;11.968;2023-08-07T08:17:19;1.43;;;0.40;;
11006;SDS011;8186;57.652;11.968;2023-08-07T08:19:45;1.60;;;0.43;;
11006;SDS011;8186;57.652;11.968;2023-08-07T08:22:12;2.60;;;0.80;;
11006;SDS011;8186;57.652;11.968;2023-08-07T08:24:39;0.70;;;0.63;;
11006;SDS011;8186;57.652;11.968;2023-08-07T08:27:06;0.90;;;0.60;;
11006;SDS011;8186;57.652;11.968;2023-08-07T08:29:34;1.03;;;0.67;;
11006;SDS011;8186;57.652;11.968;2023-08-07T08:32:01;0.90;;;0.60;;
11006;SDS011;8186;57.652;11.968;2023-08-07T08:34:28;1.83;;;0.70;;
11006;SDS011;8186;57.652;11.968;2023-08-07T08:36:55;1.30;;;0.60;;
11006;SDS011;8186;57.652;11.968;2023-08-07T08:39:22;0.97;;;0.77;;
11006;SDS011;8186;57.652;11.968;2023-08-07T08:41:49;1.73;;;0.70;;
11006;SDS011;8186;57.652;11.968;2023-08-07T08:44:17;0.60;;;0.60;;
11006;SDS011;8186;57.652;11.968;2023-08-07T08:46:47;1.17;;;0.80;;
11006;SDS011;8186;57.652;11.968;2023-08-07T08:49:19;1.70;;;0.70;;
11006;SDS011;8186;57.652;11.968;2023-08-07T08:51:47;0.80;;;0.73;;
11006;SDS011;8186;57.652;11.968;2023-08-07T08:54:14;0.70;;;0.70;;
11006;SDS011;8186;57.652;11.968;2023-08-07T08:56:41;1.07;;;0.80;;
11006;SDS011;8186;57.652;11.968;2023-08-07T08:59:09;1.07;;;0.97;;
11006;SDS011;8186;57.652;11.968;2023-08-07T09:01:35;1.90;;;0.80;;
11006;SDS011;8186;57.652;11.968;2023-08-07T09:04:04;1.07;;;0.80;;
11006;SDS011;8186;57.652;11.968;2023-08-07T09:06:31;1.63;;;1.00;;
11006;SDS011;8186;57.652;11.968;2023-08-07T09:08:59;0.80;;;0.80;;
11006;SDS011;8186;57.652;11.968;2023-08-07T09:11:26;0.97;;;0.83;;
11006;SDS011;8186;57.652;11.968;2023-08-07T09:13:54;0.80;;;0.80;;
11006;SDS011;8186;57.652;11.968;2023-08-07T09:16:22;1.50;;;0.90;;
11006;SDS011;8186;57.652;11.968;2023-08-07T09:18:50;0.83;;;0.73;;
11006;SDS011;8186;57.652;11.968;2023-08-07T09:21:21;2.20;;;1.00;;
11006;SDS011;8186;57.652;11.968;2023-08-07T09:23:47;1.23;;;0.73;;
11006;SDS011;8186;57.652;11.968;2023-08-07T09:26:15;2.00;;;0.90;;
11006;SDS011;8186;57.652;11.968;2023-08-07T09:28:48;1.17;;;0.70;;
11006;SDS011;8186;57.652;11.968;2023-08-07T09:31:15;1.00;;;0.90;;
11006;SDS011;8186;57.652;11.968;2023-08-07T09:33:42;1.00;;;0.80;;
11006;SDS011;8186;57.652;11.968;2023-08-07T09:36:09;1.23;;;0.90;;
11006;SDS011;8186;57.652;11.968;2023-08-07T09:38:39;1.90;;;1.10;;
11006;SDS011;8186;57.652;11.968;2023-08-07T09:41:06;1.03;;;0.93;;
11006;SDS011;8186;57.652;11.968;2023-08-07T09:43:33;2.80;;;1.00;;
11006;SDS011;8186;57.652;11.968;2023-08-07T09:46:04;1.60;;;0.90;;
11006;SDS011;8186;57.652;11.968;2023-08-07T09:48:31;1.83;;;1.00;;
11006;SDS011;8186;57.652;11.968;2023-08-07T09:51:00;1.00;;;0.87;;
11006;SDS011;8186;57.652;11.968;2023-08-07T09:53:27;1.30;;;0.70;;
11006;SDS011;8186;57.652;11.968;2023-08-07T09:55:56;0.87;;;0.70;;
11006;SDS011;8186;57.652;11.968;2023-08-07T09:58:24;1.17;;;0.90;;
11006;SDS011;8186;57.652;11.968;2023-08-07T10:00:51;0.93;;;0.73;;
11006;SDS011;8186;57.652;11.968;2023-08-07T10:03:20;1.00;;;0.80;;
11006;SDS011;8186;57.652;11.968;2023-08-07T10:05:48;0.73;;;0.73;;
11006;SDS011;8186;57.652;11.968;2023-08-07T10:08:15;2.07;;;0.70;;
11006;SDS011;8186;57.652;11.968;2023-08-07T10:10:42;0.80;;;0.80;;
11006;SDS011;8186;57.652;11.968;2023-08-07T10:13:13;0.70;;;0.70;;
11006;SDS011;8186;57.652;11.968;2023-08-07T10:15:40;1.00;;;0.80;;
11006;SDS011;8186;57.652;11.968;2023-08-07T10:18:07;0.70;;;0.70;;
11006;SDS011;8186;57.652;11.968;2023-08-07T10:20:35;0.70;;;0.70;;
11006;SDS011;8186;57.652;11.968;2023-08-07T10:23:04;1.87;;;0.90;;
11006;SDS011;8186;57.652;11.968;2023-08-07T10:25:34;0.70;;;0.70;;
11006;SDS011;8186;57.652;11.968;2023-08-07T10:28:01;1.20;;;0.90;;
11006;SDS011;8186;57.652;11.968;2023-08-07T10:30:30;0.77;;;0.70;;
11006;SDS011;8186;57.652;11.968;2023-08-07T10:32:57;2.27;;;0.80;;
11006;SDS011;8186;57.652;11.968;2023-08-07T10:35:25;0.80;;;0.80;;
11006;SDS011;8186;57.652;11.968;2023-08-07T10:37:53;1.00;;;1.00;;
11006;SDS011;8186;57.652;11.968;2023-08-07T10:40:20;1.10;;;1.00;;
11006;SDS011;8186;57.652;11.968;2023-08-07T10:42:58;1.00;;;1.00;;
11006;SDS011;8186;57.652;11.968;2023-08-07T10:45:25;1.47;;;1.20;;
11006;SDS011;8186;57.652;11.968;2023-08-07T10:47:58;1.00;;;0.90;;
11006;SDS011;8186;57.652;11.968;2023-08-07T10:50:29;1.40;;;1.20;;
11006;SDS011;8186;57.652;11.968;2023-08-07T10:52:59;2.30;;;1.20;;
11006;SDS011;8186;57.652;11.968;2023-08-07T10:55:26;2.53;;;1.40;;
11006;SDS011;8186;57.652;11.968;2023-08-07T10:57:53;1.53;;;1.33;;
11006;SDS011;8186;57.652;11.968;2023-08-07T11:00:21;2.10;;;1.60;;
11006;SDS011;8186;57.652;11.968;2023-08-07T11:02:52;2.33;;;1.20;;
11006;SDS011;8186;57.652;11.968;2023-08-07T11:05:21;1.93;;;1.30;;
11006;SDS011;8186;57.652;11.968;2023-08-07T11:07:50;3.00;;;1.67;;
11006;SDS011;8186;57.652;11.968;2023-08-07T11:10:17;2.27;;;2.03;;
11006;SDS011;8186;57.652;11.968;2023-08-07T11:12:44;2.13;;;1.73;;
11006;SDS011;8186;57.652;11.968;2023-08-07T11:15:14;2.03;;;1.83;;
11006;SDS011;8186;57.652;11.968;2023-08-07T11:17:41;2.33;;;2.00;;
11006;SDS011;8186;57.652;11.968;2023-08-07T11:20:08;2.20;;;2.00;;
11006;SDS011;8186;57.652;11.968;2023-08-07T11:22:39;2.47;;;2.23;;
11006;SDS011;8186;57.652;11.968;2023-08-07T11:25:07;2.93;;;2.30;;
11006;SDS011;8186;57.652;11.968;2023-08-07T11:27:38;2.23;;;2.03;;
11006;SDS011;8186;57.652;11.968;2023-08-07T11:30:10;3.70;;;2.10;;
11006;SDS011;8186;57.652;11.968;2023-08-07T11:32:38;2.30;;;2.10;;
11006;SDS011;8186;57.652;11.968;2023-08-07T11:35:05;3.33;;;2.20;;
11006;SDS011;8186;57.652;11.968;2023-08-07T11:37:33;3.33;;;2.87;;
11006;SDS011;8186;57.652;11.968;2023-08-07T11:40:02;4.33;;;3.17;;
11006;SDS011;8186;57.652;11.968;2023-08-07T11:42:29;4.90;;;4.40;;
11006;SDS011;8186;57.652;11.968;2023-08-07T11:44:56;6.20;;;4.63;;
11006;SDS011;8186;57.652;11.968;2023-08-07T11:47:23;5.17;;;4.23;;
11006;SDS011;8186;57.652;11.968;2023-08-07T11:49:52;5.53;;;4.17;;
11006;SDS011;8186;57.652;11.968;2023-08-07T11:52:19;6.43;;;4.53;;
11006;SDS011;8186;57.652;11.968;2023-08-07T11:54:47;4.13;;;3.67;;
11006;SDS011;8186;57.652;11.968;2023-08-07T11:57:17;4.45;;;3.50;;
11006;SDS011;8186;57.652;11.968;2023-08-07T11:59:48;3.97;;;3.20;;
11006;SDS011;8186;57.652;11.968;2023-08-07T12:02:16;6.13;;;3.13;;
11006;SDS011;8186;57.652;11.968;2023-08-07T12:04:43;3.50;;;3.20;;
11006;SDS011;8186;57.652;11.968;2023-08-07T12:07:10;6.87;;;2.53;;
11006;SDS011;8186;57.652;11.968;2023-08-07T12:09:38;9.17;;;2.90;;
11006;SDS011;8186;57.652;11.968;2023-08-07T12:12:06;4.00;;;2.85;;
11006;SDS011;8186;57.652;11.968;2023-08-07T12:14:35;3.83;;;3.13;;
11006;SDS011;8186;57.652;11.968;2023-08-07T12:17:02;5.43;;;3.50;;
11006;SDS011;8186;57.652;11.968;2023-08-07T12:19:36;3.53;;;3.20;;
11006;SDS011;8186;57.652;11.968;2023-08-07T12:22:06;6.43;;;3.20;;
11006;SDS011;8186;57.652;11.968;2023-08-07T12:24:35;3.50;;;2.73;;
11006;SDS011;8186;57.652;11.968;2023-08-07T12:27:02;3.20;;;2.40;;
11006;SDS011;8186;57.652;11.968;2023-08-07T12:29:29;4.90;;;2.50;;
11006;SDS011;8186;57.652;11.968;2023-08-07T12:31:58;4.00;;;2.43;;
11006;SDS011;8186;57.652;11.968;2023-08-07T12:34:26;5.37;;;3.20;;
11006;SDS011;8186;57.652;11.968;2023-08-07T12:36:53;6.00;;;2.67;;
11006;SDS011;8186;57.652;11.968;2023-08-07T12:39:20;3.27;;;2.80;;
11006;SDS011;8186;57.652;11.968;2023-08-07T12:41:47;5.17;;;3.40;;
11006;SDS011;8186;57.652;11.968;2023-08-07T12:44:14;3.10;;;2.80;;
11006;SDS011;8186;57.652;11.968;2023-08-07T12:46:41;3.10;;;2.50;;
11006;SDS011;8186;57.652;11.968;2023-08-07T12:49:09;6.70;;;3.23;;
11006;SDS011;8186;57.652;11.968;2023-08-07T12:51:36;4.87;;;2.70;;
11006;SDS011;8186;57.652;11.968;2023-08-07T12:54:03;4.30;;;2.85;;
11006;SDS011;8186;57.652;11.968;2023-08-07T12:56:30;5.13;;;2.93;;
11006;SDS011;8186;57.652;11.968;2023-08-07T12:58:57;3.20;;;2.70;;
11006;SDS011;8186;57.652;11.968;2023-08-07T13:01:24;3.50;;;2.83;;
11006;SDS011;8186;57.652;11.968;2023-08-07T13:03:51;3.17;;;2.43;;
11006;SDS011;8186;57.652;11.968;2023-08-07T13:06:20;3.03;;;2.53;;
11006;SDS011;8186;57.652;11.968;2023-08-07T13:08:47;6.53;;;2.50;;
11006;SDS011;8186;57.652;11.968;2023-08-07T13:11:14;4.17;;;2.10;;
11006;SDS011;8186;57.652;11.968;2023-08-07T13:13:41;5.83;;;2.20;;
11006;SDS011;8186;57.652;11.968;2023-08-07T13:16:07;2.53;;;1.40;;
11006;SDS011;8186;57.652;11.968;2023-08-07T13:18:34;4.27;;;1.70;;
11006;SDS011;8186;57.652;11.968;2023-08-07T13:21:01;2.70;;;1.20;;
11006;SDS011;8186;57.652;11.968;2023-08-07T13:23:29;3.83;;;1.27;;
11006;SDS011;8186;57.652;11.968;2023-08-07T13:25:56;2.07;;;1.37;;
11006;SDS011;8186;57.652;11.968;2023-08-07T13:28:23;3.37;;;1.63;;
11006;SDS011;8186;57.652;11.968;2023-08-07T13:30:50;1.87;;;1.30;;
11006;SDS011;8186;57.652;11.968;2023-08-07T13:33:19;3.30;;;1.30;;
11006;SDS011;8186;57.652;11.968;2023-08-07T13:35:46;1.92;;;1.13;;
11006;SDS011;8186;57.652;11.968;2023-08-07T13:38:13;2.87;;;1.47;;
11006;SDS011;8186;57.652;11.968;2023-08-07T13:40:42;1.70;;;1.20;;
11006;SDS011;8186;57.652;11.968;2023-08-07T13:43:10;1.25;;;1.15;;
11006;SDS011;8186;57.652;11.968;2023-08-07T13:45:37;3.10;;;1.10;;
11006;SDS011;8186;57.652;11.968;2023-08-07T13:48:04;1.40;;;1.07;;
11006;SDS011;8186;57.652;11.968;2023-08-07T13:50:34;2.87;;;1.07;;
11006;SDS011;8186;57.652;11.968;2023-08-07T13:53:02;3.22;;;1.35;;
11006;SDS011;8186;57.652;11.968;2023-08-07T13:55:29;1.70;;;1.20;;
11006;SDS011;8186;57.652;11.968;2023-08-07T13:57:58;1.73;;;1.20;;
11006;SDS011;8186;57.652;11.968;2023-08-07T14:00:24;3.05;;;1.48;;
11006;SDS011;8186;57.652;11.968;2023-08-07T14:02:51;1.85;;;1.02;;
11006;SDS011;8186;57.652;11.968;2023-08-07T14:05:18;1.25;;;1.10;;
11006;SDS011;8186;57.652;11.968;2023-08-07T14:07:45;1.60;;;1.10;;
11006;SDS011;8186;57.652;11.968;2023-08-07T14:10:12;2.27;;;1.57;;
11006;SDS011;8186;57.652;11.968;2023-08-07T14:12:39;2.03;;;1.30;;
11006;SDS011;8186;57.652;11.968;2023-08-07T14:15:08;6.73;;;1.60;;
11006;SDS011;8186;57.652;11.968;2023-08-07T14:17:36;2.60;;;1.40;;
11006;SDS011;8186;57.652;11.968;2023-08-07T14:20:03;3.47;;;1.30;;
11006;SDS011;8186;57.652;11.968;2023-08-07T14:22:31;2.65;;;1.48;;
11006;SDS011;8186;57.652;11.968;2023-08-07T14:25:00;1.70;;;1.10;;
11006;SDS011;8186;57.652;11.968;2023-08-07T14:27:27;4.60;;;1.30;;
11006;SDS011;8186;57.652;11.968;2023-08-07T14:29:53;2.47;;;1.20;;
11006;SDS011;8186;57.652;11.968;2023-08-07T14:32:22;2.57;;;1.33;;
11006;SDS011;8186;57.652;11.968;2023-08-07T14:34:49;2.37;;;1.17;;
11006;SDS011;8186;57.652;11.968;2023-08-07T14:37:16;3.50;;;1.30;;
11006;SDS011;8186;57.652;11.968;2023-08-07T14:39:43;1.87;;;1.00;;
11006;SDS011;8186;57.652;11.968;2023-08-07T14:42:10;4.43;;;1.20;;
11006;SDS011;8186;57.652;11.968;2023-08-07T14:44:37;1.33;;;0.90;;
11006;SDS011;8186;57.652;11.968;2023-08-07T14:47:04;4.33;;;1.03;;
11006;SDS011;8186;57.652;11.968;2023-08-07T14:49:33;2.93;;;0.90;;